sensor_id;sensor_type;location;lat;lon;timestamp;temperature;humidity
65050;DHT22;52090;51.224;-2.328;2023-02-03T00:01:23;11.00;94.20
65050;DHT22;52090;51.224;-2.328;2023-02-03T00:05:06;11.00;94.20
65050;DHT22;52090;51.224;-2.328;2023-02-03T00:08:48;11.00;94.30
65050;DHT22;52090;51.224;-2.328;2023-02-03T00:12:34;11.00;94.30
65050;DHT22;52090;51.224;-2.328;2023-02-03T00:16:16;10.90;94.30
65050;DHT22;52090;51.224;-2.328;2023-02-03T00:19:58;11.00;94.30
65050;DHT22;52090;51.224;-2.328;2023-02-03T00:23:40;11.00;94.70
65050;DHT22;52090;51.224;-2.328;2023-02-03T00:27:22;10.90;94.40
65050;DHT22;52090;51.224;-2.328;2023-02-03T00:31:04;10.90;94.50
65050;DHT22;52090;51.224;-2.328;2023-02-03T00:34:46;10.90;94.50
65050;DHT22;52090;51.224;-2.328;2023-02-03T00:38:28;10.90;94.40
65050;DHT22;52090;51.224;-2.328;2023-02-03T00:42:10;10.90;94.40
65050;DHT22;52090;51.224;-2.328;2023-02-03T00:45:52;10.90;94.40
65050;DHT22;52090;51.224;-2.328;2023-02-03T00:49:33;10.90;94.40
65050;DHT22;52090;51.224;-2.328;2023-02-03T00:53:15;10.90;94.30
65050;DHT22;52090;51.224;-2.328;2023-02-03T00:56:57;10.90;94.30
65050;DHT22;52090;51.224;-2.328;2023-02-03T01:00:39;10.80;94.30
65050;DHT22;52090;51.224;-2.328;2023-02-03T01:04:21;10.80;94.40
65050;DHT22;52090;51.224;-2.328;2023-02-03T01:08:02;10.80;94.30
65050;DHT22;52090;51.224;-2.328;2023-02-03T01:11:44;10.70;94.40
65050;DHT22;52090;51.224;-2.328;2023-02-03T01:15:26;10.70;94.50
65050;DHT22;52090;51.224;-2.328;2023-02-03T01:19:08;10.70;94.50
65050;DHT22;52090;51.224;-2.328;2023-02-03T01:22:50;10.70;94.60
65050;DHT22;52090;51.224;-2.328;2023-02-03T01:26:31;10.70;94.70
65050;DHT22;52090;51.224;-2.328;2023-02-03T01:30:13;10.70;94.80
65050;DHT22;52090;51.224;-2.328;2023-02-03T01:33:56;10.70;94.80
65050;DHT22;52090;51.224;-2.328;2023-02-03T01:37:38;10.60;94.80
65050;DHT22;52090;51.224;-2.328;2023-02-03T01:41:23;10.60;94.90
65050;DHT22;52090;51.224;-2.328;2023-02-03T01:45:05;10.70;95.00
65050;DHT22;52090;51.224;-2.328;2023-02-03T01:48:47;10.70;95.00
65050;DHT22;52090;51.224;-2.328;2023-02-03T01:52:30;10.70;95.00
65050;DHT22;52090;51.224;-2.328;2023-02-03T01:56:12;10.70;95.10
65050;DHT22;52090;51.224;-2.328;2023-02-03T01:59:56;10.80;95.30
65050;DHT22;52090;51.224;-2.328;2023-02-03T02:03:51;10.80;95.00
65050;DHT22;52090;51.224;-2.328;2023-02-03T02:07:36;10.80;95.20
65050;DHT22;52090;51.224;-2.328;2023-02-03T02:11:19;10.80;94.90
65050;DHT22;52090;51.224;-2.328;2023-02-03T02:15:02;10.80;94.90
65050;DHT22;52090;51.224;-2.328;2023-02-03T02:23:02;10.80;94.90
65050;DHT22;52090;51.224;-2.328;2023-02-03T02:42:59;10.80;94.90
65050;DHT22;52090;51.224;-2.328;2023-02-03T02:46:47;10.80;95.00
65050;DHT22;52090;51.224;-2.328;2023-02-03T02:50:33;10.90;95.00
65050;DHT22;52090;51.224;-2.328;2023-02-03T02:54:22;10.80;95.00
65050;DHT22;52090;51.224;-2.328;2023-02-03T02:58:06;10.80;95.00
65050;DHT22;52090;51.224;-2.328;2023-02-03T03:01:49;10.90;95.00
65050;DHT22;52090;51.224;-2.328;2023-02-03T03:05:32;10.90;95.00
65050;DHT22;52090;51.224;-2.328;2023-02-03T03:09:26;10.90;95.00
65050;DHT22;52090;51.224;-2.328;2023-02-03T03:13:17;10.90;95.10
65050;DHT22;52090;51.224;-2.328;2023-02-03T03:17:05;10.90;95.10
65050;DHT22;52090;51.224;-2.328;2023-02-03T03:20:50;10.90;95.00
65050;DHT22;52090;51.224;-2.328;2023-02-03T03:24:39;10.90;95.00
65050;DHT22;52090;51.224;-2.328;2023-02-03T03:28:29;10.90;95.00
65050;DHT22;52090;51.224;-2.328;2023-02-03T03:32:13;10.90;95.00
65050;DHT22;52090;51.224;-2.328;2023-02-03T03:35:57;10.90;95.00
65050;DHT22;52090;51.224;-2.328;2023-02-03T03:43:29;10.90;95.00
65050;DHT22;52090;51.224;-2.328;2023-02-03T03:47:29;10.90;95.20
65050;DHT22;52090;51.224;-2.328;2023-02-03T03:51:17;10.90;94.90
65050;DHT22;52090;51.224;-2.328;2023-02-03T03:55:01;10.90;94.80
65050;DHT22;52090;51.224;-2.328;2023-02-03T03:58:45;10.90;94.70
65050;DHT22;52090;51.224;-2.328;2023-02-03T04:02:29;10.90;94.70
65050;DHT22;52090;51.224;-2.328;2023-02-03T04:06:13;10.90;94.70
65050;DHT22;52090;51.224;-2.328;2023-02-03T04:09:55;10.90;95.10
65050;DHT22;52090;51.224;-2.328;2023-02-03T04:13:37;10.80;94.90
65050;DHT22;52090;51.224;-2.328;2023-02-03T04:17:18;10.90;94.80
65050;DHT22;52090;51.224;-2.328;2023-02-03T04:21:00;10.80;94.70
65050;DHT22;52090;51.224;-2.328;2023-02-03T04:24:42;10.80;94.50
65050;DHT22;52090;51.224;-2.328;2023-02-03T04:28:24;10.80;94.50
65050;DHT22;52090;51.224;-2.328;2023-02-03T04:32:06;10.80;94.50
65050;DHT22;52090;51.224;-2.328;2023-02-03T04:35:47;10.80;94.60
65050;DHT22;52090;51.224;-2.328;2023-02-03T04:39:29;10.70;94.60
65050;DHT22;52090;51.224;-2.328;2023-02-03T04:43:11;10.70;94.60
65050;DHT22;52090;51.224;-2.328;2023-02-03T04:46:54;10.70;94.60
65050;DHT22;52090;51.224;-2.328;2023-02-03T04:50:36;10.70;94.90
65050;DHT22;52090;51.224;-2.328;2023-02-03T04:54:18;10.70;94.70
65050;DHT22;52090;51.224;-2.328;2023-02-03T04:58:00;10.70;94.90
65050;DHT22;52090;51.224;-2.328;2023-02-03T05:01:42;10.70;94.90
65050;DHT22;52090;51.224;-2.328;2023-02-03T05:05:23;10.70;94.90
65050;DHT22;52090;51.224;-2.328;2023-02-03T05:09:05;10.70;95.00
65050;DHT22;52090;51.224;-2.328;2023-02-03T05:12:47;10.70;95.00
65050;DHT22;52090;51.224;-2.328;2023-02-03T05:16:29;10.70;95.10
65050;DHT22;52090;51.224;-2.328;2023-02-03T05:20:11;10.70;95.10
65050;DHT22;52090;51.224;-2.328;2023-02-03T05:23:53;10.80;95.10
65050;DHT22;52090;51.224;-2.328;2023-02-03T05:27:37;10.80;95.10
65050;DHT22;52090;51.224;-2.328;2023-02-03T05:31:19;10.70;94.90
65050;DHT22;52090;51.224;-2.328;2023-02-03T05:35:01;10.70;94.70
65050;DHT22;52090;51.224;-2.328;2023-02-03T05:38:42;10.70;94.60
65050;DHT22;52090;51.224;-2.328;2023-02-03T05:42:24;10.60;94.40
65050;DHT22;52090;51.224;-2.328;2023-02-03T05:46:06;10.60;94.40
65050;DHT22;52090;51.224;-2.328;2023-02-03T05:49:48;10.50;94.50
65050;DHT22;52090;51.224;-2.328;2023-02-03T05:53:30;10.50;94.70
65050;DHT22;52090;51.224;-2.328;2023-02-03T05:57:12;10.50;94.80
65050;DHT22;52090;51.224;-2.328;2023-02-03T06:00:54;10.50;95.00
65050;DHT22;52090;51.224;-2.328;2023-02-03T06:04:35;10.50;95.10
65050;DHT22;52090;51.224;-2.328;2023-02-03T06:08:17;10.60;95.20
65050;DHT22;52090;51.224;-2.328;2023-02-03T06:11:59;10.60;95.20
65050;DHT22;52090;51.224;-2.328;2023-02-03T06:15:41;10.60;95.20
65050;DHT22;52090;51.224;-2.328;2023-02-03T06:19:23;10.60;95.50
65050;DHT22;52090;51.224;-2.328;2023-02-03T06:23:05;10.60;95.30
65050;DHT22;52090;51.224;-2.328;2023-02-03T06:26:46;10.70;95.30
65050;DHT22;52090;51.224;-2.328;2023-02-03T06:30:28;10.70;95.40
65050;DHT22;52090;51.224;-2.328;2023-02-03T06:34:10;10.70;95.40
65050;DHT22;52090;51.224;-2.328;2023-02-03T06:37:52;10.70;95.40
65050;DHT22;52090;51.224;-2.328;2023-02-03T06:41:34;10.70;95.40
65050;DHT22;52090;51.224;-2.328;2023-02-03T06:45:16;10.80;95.40
65050;DHT22;52090;51.224;-2.328;2023-02-03T06:48:59;10.80;95.40
65050;DHT22;52090;51.224;-2.328;2023-02-03T06:52:41;10.80;95.40
65050;DHT22;52090;51.224;-2.328;2023-02-03T06:56:23;10.80;95.30
65050;DHT22;52090;51.224;-2.328;2023-02-03T07:00:05;10.80;95.30
65050;DHT22;52090;51.224;-2.328;2023-02-03T07:03:47;10.80;95.30
65050;DHT22;52090;51.224;-2.328;2023-02-03T07:07:29;10.80;95.20
65050;DHT22;52090;51.224;-2.328;2023-02-03T07:11:12;10.80;95.00
65050;DHT22;52090;51.224;-2.328;2023-02-03T07:14:54;10.80;94.80
65050;DHT22;52090;51.224;-2.328;2023-02-03T07:18:36;10.70;94.90
65050;DHT22;52090;51.224;-2.328;2023-02-03T07:22:33;10.60;94.50
65050;DHT22;52090;51.224;-2.328;2023-02-03T07:26:17;10.50;94.40
65050;DHT22;52090;51.224;-2.328;2023-02-03T07:29:59;10.50;94.40
65050;DHT22;52090;51.224;-2.328;2023-02-03T07:33:41;10.40;94.40
65050;DHT22;52090;51.224;-2.328;2023-02-03T07:37:23;10.40;94.40
65050;DHT22;52090;51.224;-2.328;2023-02-03T07:41:05;10.30;94.30
65050;DHT22;52090;51.224;-2.328;2023-02-03T07:44:47;10.20;94.40
65050;DHT22;52090;51.224;-2.328;2023-02-03T07:48:29;10.30;94.90
65050;DHT22;52090;51.224;-2.328;2023-02-03T07:52:11;10.30;95.20
65050;DHT22;52090;51.224;-2.328;2023-02-03T07:55:52;10.30;95.40
65050;DHT22;52090;51.224;-2.328;2023-02-03T07:59:34;10.40;95.80
65050;DHT22;52090;51.224;-2.328;2023-02-03T08:03:16;10.40;95.60
65050;DHT22;52090;51.224;-2.328;2023-02-03T08:06:58;10.40;95.60
65050;DHT22;52090;51.224;-2.328;2023-02-03T08:10:40;10.50;95.60
65050;DHT22;52090;51.224;-2.328;2023-02-03T08:14:21;10.50;95.70
65050;DHT22;52090;51.224;-2.328;2023-02-03T08:18:04;10.60;95.70
65050;DHT22;52090;51.224;-2.328;2023-02-03T08:21:46;10.60;95.70
65050;DHT22;52090;51.224;-2.328;2023-02-03T08:25:28;10.70;95.80
65050;DHT22;52090;51.224;-2.328;2023-02-03T08:29:10;10.70;95.80
65050;DHT22;52090;51.224;-2.328;2023-02-03T08:32:52;10.80;95.70
65050;DHT22;52090;51.224;-2.328;2023-02-03T08:36:34;10.80;95.70
65050;DHT22;52090;51.224;-2.328;2023-02-03T08:40:17;10.80;95.70
65050;DHT22;52090;51.224;-2.328;2023-02-03T08:43:59;10.80;95.70
65050;DHT22;52090;51.224;-2.328;2023-02-03T08:47:41;10.90;95.60
65050;DHT22;52090;51.224;-2.328;2023-02-03T08:51:23;10.90;95.60
65050;DHT22;52090;51.224;-2.328;2023-02-03T08:55:05;10.90;95.50
65050;DHT22;52090;51.224;-2.328;2023-02-03T08:58:47;10.90;95.50
65050;DHT22;52090;51.224;-2.328;2023-02-03T09:02:29;10.90;95.40
65050;DHT22;52090;51.224;-2.328;2023-02-03T09:06:11;10.90;95.40
65050;DHT22;52090;51.224;-2.328;2023-02-03T09:09:57;10.90;95.40
65050;DHT22;52090;51.224;-2.328;2023-02-03T09:13:39;10.90;95.40
65050;DHT22;52090;51.224;-2.328;2023-02-03T09:17:25;10.90;95.30
65050;DHT22;52090;51.224;-2.328;2023-02-03T09:21:09;10.90;95.30
65050;DHT22;52090;51.224;-2.328;2023-02-03T09:25:08;10.90;95.30
65050;DHT22;52090;51.224;-2.328;2023-02-03T09:28:51;10.90;95.40
65050;DHT22;52090;51.224;-2.328;2023-02-03T09:32:33;10.90;95.50
65050;DHT22;52090;51.224;-2.328;2023-02-03T09:36:15;11.00;95.50
65050;DHT22;52090;51.224;-2.328;2023-02-03T09:39:56;11.00;95.50
65050;DHT22;52090;51.224;-2.328;2023-02-03T09:47:33;11.10;95.60
65050;DHT22;52090;51.224;-2.328;2023-02-03T09:51:20;11.10;95.70
65050;DHT22;52090;51.224;-2.328;2023-02-03T09:59:08;11.20;95.80
65050;DHT22;52090;51.224;-2.328;2023-02-03T10:02:58;11.30;95.70
65050;DHT22;52090;51.224;-2.328;2023-02-03T10:06:45;11.40;95.80
65050;DHT22;52090;51.224;-2.328;2023-02-03T10:10:38;11.40;95.80
65050;DHT22;52090;51.224;-2.328;2023-02-03T10:14:33;11.50;95.70
65050;DHT22;52090;51.224;-2.328;2023-02-03T10:18:30;11.60;95.60
65050;DHT22;52090;51.224;-2.328;2023-02-03T10:22:21;11.60;95.50
65050;DHT22;52090;51.224;-2.328;2023-02-03T10:26:15;11.60;95.50
65050;DHT22;52090;51.224;-2.328;2023-02-03T10:33:46;11.70;95.50
65050;DHT22;52090;51.224;-2.328;2023-02-03T10:37:32;11.70;95.50
65050;DHT22;52090;51.224;-2.328;2023-02-03T10:41:17;11.80;95.40
65050;DHT22;52090;51.224;-2.328;2023-02-03T10:45:00;11.80;95.50
65050;DHT22;52090;51.224;-2.328;2023-02-03T10:48:44;11.80;95.50
65050;DHT22;52090;51.224;-2.328;2023-02-03T10:52:33;11.80;95.40
65050;DHT22;52090;51.224;-2.328;2023-02-03T10:56:16;11.90;95.20
65050;DHT22;52090;51.224;-2.328;2023-02-03T11:00:28;11.90;95.40
65050;DHT22;52090;51.224;-2.328;2023-02-03T11:08:14;12.00;94.90
65050;DHT22;52090;51.224;-2.328;2023-02-03T11:19:46;12.10;95.10
65050;DHT22;52090;51.224;-2.328;2023-02-03T11:23:28;12.20;95.00
65050;DHT22;52090;51.224;-2.328;2023-02-03T11:27:14;12.20;95.20
65050;DHT22;52090;51.224;-2.328;2023-02-03T11:30:56;12.20;95.00
65050;DHT22;52090;51.224;-2.328;2023-02-03T11:35:04;12.30;95.10
65050;DHT22;52090;51.224;-2.328;2023-02-03T11:38:49;12.30;94.80
65050;DHT22;52090;51.224;-2.328;2023-02-03T11:42:31;12.30;95.00
65050;DHT22;52090;51.224;-2.328;2023-02-03T11:46:14;12.30;95.00
65050;DHT22;52090;51.224;-2.328;2023-02-03T11:50:18;12.40;94.90
65050;DHT22;52090;51.224;-2.328;2023-02-03T12:14:54;12.50;93.90
65050;DHT22;52090;51.224;-2.328;2023-02-03T12:22:35;12.70;94.00
65050;DHT22;52090;51.224;-2.328;2023-02-03T12:26:21;12.70;94.30
65050;DHT22;52090;51.224;-2.328;2023-02-03T12:30:21;12.80;94.60
65050;DHT22;52090;51.224;-2.328;2023-02-03T12:34:26;12.80;94.50
65050;DHT22;52090;51.224;-2.328;2023-02-03T12:46:13;12.90;93.90
65050;DHT22;52090;51.224;-2.328;2023-02-03T12:50:02;13.00;94.00
65050;DHT22;52090;51.224;-2.328;2023-02-03T12:53:49;13.00;94.00
65050;DHT22;52090;51.224;-2.328;2023-02-03T12:57:55;13.10;93.80
65050;DHT22;52090;51.224;-2.328;2023-02-03T13:02:29;13.10;93.10
65050;DHT22;52090;51.224;-2.328;2023-02-03T13:10:11;13.10;93.00
65050;DHT22;52090;51.224;-2.328;2023-02-03T13:14:13;13.10;92.90
65050;DHT22;52090;51.224;-2.328;2023-02-03T13:21:51;13.10;92.60
65050;DHT22;52090;51.224;-2.328;2023-02-03T13:25:59;13.10;93.30
65050;DHT22;52090;51.224;-2.328;2023-02-03T13:33:53;13.20;92.80
65050;DHT22;52090;51.224;-2.328;2023-02-03T13:37:45;13.20;91.60
65050;DHT22;52090;51.224;-2.328;2023-02-03T13:42:22;13.20;92.90
65050;DHT22;52090;51.224;-2.328;2023-02-03T13:45:42;13.20;92.40
65050;DHT22;52090;51.224;-2.328;2023-02-03T13:49:47;13.30;92.70
65050;DHT22;52090;51.224;-2.328;2023-02-03T13:53:37;13.30;91.80
65050;DHT22;52090;51.224;-2.328;2023-02-03T13:57:33;13.30;92.20
65050;DHT22;52090;51.224;-2.328;2023-02-03T14:01:36;13.40;91.70
65050;DHT22;52090;51.224;-2.328;2023-02-03T14:05:38;13.50;91.50
65050;DHT22;52090;51.224;-2.328;2023-02-03T14:13:19;13.40;91.30
65050;DHT22;52090;51.224;-2.328;2023-02-03T14:17:02;13.40;91.40
65050;DHT22;52090;51.224;-2.328;2023-02-03T14:20:47;13.40;92.20
65050;DHT22;52090;51.224;-2.328;2023-02-03T14:24:41;13.40;91.70
65050;DHT22;52090;51.224;-2.328;2023-02-03T14:28:39;13.40;91.50
65050;DHT22;52090;51.224;-2.328;2023-02-03T14:32:49;13.40;91.50
65050;DHT22;52090;51.224;-2.328;2023-02-03T14:44:41;13.50;90.80
65050;DHT22;52090;51.224;-2.328;2023-02-03T14:56:32;13.40;91.00
65050;DHT22;52090;51.224;-2.328;2023-02-03T15:00:38;13.40;90.80
65050;DHT22;52090;51.224;-2.328;2023-02-03T15:04:21;13.40;91.70
65050;DHT22;52090;51.224;-2.328;2023-02-03T15:08:03;13.40;91.40
65050;DHT22;52090;51.224;-2.328;2023-02-03T15:11:45;13.40;91.50
65050;DHT22;52090;51.224;-2.328;2023-02-03T15:15:30;13.40;91.40
65050;DHT22;52090;51.224;-2.328;2023-02-03T15:19:16;13.40;91.10
65050;DHT22;52090;51.224;-2.328;2023-02-03T15:22:59;13.30;91.10
65050;DHT22;52090;51.224;-2.328;2023-02-03T15:26:46;13.30;91.40
65050;DHT22;52090;51.224;-2.328;2023-02-03T15:30:29;13.30;91.00
65050;DHT22;52090;51.224;-2.328;2023-02-03T15:34:33;13.30;91.30
65050;DHT22;52090;51.224;-2.328;2023-02-03T15:38:30;13.20;90.90
65050;DHT22;52090;51.224;-2.328;2023-02-03T15:43:11;13.20;90.70
65050;DHT22;52090;51.224;-2.328;2023-02-03T15:46:27;13.10;90.90
65050;DHT22;52090;51.224;-2.328;2023-02-03T15:54:44;12.90;91.10
65050;DHT22;52090;51.224;-2.328;2023-02-03T15:58:43;12.80;91.20
65050;DHT22;52090;51.224;-2.328;2023-02-03T16:02:27;12.80;91.20
65050;DHT22;52090;51.224;-2.328;2023-02-03T16:06:24;12.80;91.60
65050;DHT22;52090;51.224;-2.328;2023-02-03T16:10:28;12.70;91.20
65050;DHT22;52090;51.224;-2.328;2023-02-03T16:14:10;12.70;91.20
65050;DHT22;52090;51.224;-2.328;2023-02-03T16:18:16;12.70;91.50
65050;DHT22;52090;51.224;-2.328;2023-02-03T16:21:58;12.70;91.20
65050;DHT22;52090;51.224;-2.328;2023-02-03T16:25:40;12.60;91.40
65050;DHT22;52090;51.224;-2.328;2023-02-03T16:29:28;12.60;91.40
65050;DHT22;52090;51.224;-2.328;2023-02-03T16:33:31;12.50;91.20
65050;DHT22;52090;51.224;-2.328;2023-02-03T16:37:33;12.50;91.30
65050;DHT22;52090;51.224;-2.328;2023-02-03T16:41:41;12.50;91.40
65050;DHT22;52090;51.224;-2.328;2023-02-03T16:45:42;12.40;91.40
65050;DHT22;52090;51.224;-2.328;2023-02-03T16:49:42;12.40;91.50
65050;DHT22;52090;51.224;-2.328;2023-02-03T16:53:44;12.30;91.50
65050;DHT22;52090;51.224;-2.328;2023-02-03T16:57:28;12.30;91.60
65050;DHT22;52090;51.224;-2.328;2023-02-03T17:01:10;12.30;91.70
65050;DHT22;52090;51.224;-2.328;2023-02-03T17:04:52;12.20;91.80
65050;DHT22;52090;51.224;-2.328;2023-02-03T17:08:35;12.20;91.80
65050;DHT22;52090;51.224;-2.328;2023-02-03T17:12:17;12.20;91.80
65050;DHT22;52090;51.224;-2.328;2023-02-03T17:15:59;12.20;91.80
65050;DHT22;52090;51.224;-2.328;2023-02-03T17:19:42;12.10;91.90
65050;DHT22;52090;51.224;-2.328;2023-02-03T17:23:24;12.10;91.90
65050;DHT22;52090;51.224;-2.328;2023-02-03T17:27:06;12.10;92.00
65050;DHT22;52090;51.224;-2.328;2023-02-03T17:31:05;12.00;92.00
65050;DHT22;52090;51.224;-2.328;2023-02-03T17:34:48;12.00;92.20
65050;DHT22;52090;51.224;-2.328;2023-02-03T17:38:30;12.00;92.40
65050;DHT22;52090;51.224;-2.328;2023-02-03T17:42:12;11.90;92.20
65050;DHT22;52090;51.224;-2.328;2023-02-03T17:46:14;11.90;92.20
65050;DHT22;52090;51.224;-2.328;2023-02-03T17:50:13;11.80;92.20
65050;DHT22;52090;51.224;-2.328;2023-02-03T17:54:15;11.90;92.30
65050;DHT22;52090;51.224;-2.328;2023-02-03T17:57:57;11.80;92.50
65050;DHT22;52090;51.224;-2.328;2023-02-03T18:01:39;11.90;92.40
65050;DHT22;52090;51.224;-2.328;2023-02-03T18:05:21;11.80;92.40
65050;DHT22;52090;51.224;-2.328;2023-02-03T18:09:05;11.80;92.40
65050;DHT22;52090;51.224;-2.328;2023-02-03T18:12:47;11.80;92.50
65050;DHT22;52090;51.224;-2.328;2023-02-03T18:16:32;11.80;92.50
65050;DHT22;52090;51.224;-2.328;2023-02-03T18:20:15;11.80;92.50
65050;DHT22;52090;51.224;-2.328;2023-02-03T18:23:57;11.80;92.50
65050;DHT22;52090;51.224;-2.328;2023-02-03T18:27:42;11.80;92.50
65050;DHT22;52090;51.224;-2.328;2023-02-03T18:31:24;11.80;92.50
65050;DHT22;52090;51.224;-2.328;2023-02-03T18:35:06;11.80;92.50
65050;DHT22;52090;51.224;-2.328;2023-02-03T18:38:53;11.80;92.60
65050;DHT22;52090;51.224;-2.328;2023-02-03T18:42:35;11.80;92.60
65050;DHT22;52090;51.224;-2.328;2023-02-03T18:46:22;11.80;92.60
65050;DHT22;52090;51.224;-2.328;2023-02-03T18:50:05;11.80;92.70
65050;DHT22;52090;51.224;-2.328;2023-02-03T18:53:47;11.80;92.60
65050;DHT22;52090;51.224;-2.328;2023-02-03T18:57:29;11.80;92.70
65050;DHT22;52090;51.224;-2.328;2023-02-03T19:01:26;11.80;92.70
65050;DHT22;52090;51.224;-2.328;2023-02-03T19:05:08;11.70;93.00
65050;DHT22;52090;51.224;-2.328;2023-02-03T19:08:52;11.70;93.10
65050;DHT22;52090;51.224;-2.328;2023-02-03T19:12:33;11.70;92.90
65050;DHT22;52090;51.224;-2.328;2023-02-03T19:16:16;11.70;92.90
65050;DHT22;52090;51.224;-2.328;2023-02-03T19:19:58;11.70;93.00
65050;DHT22;52090;51.224;-2.328;2023-02-03T19:23:40;11.70;93.00
65050;DHT22;52090;51.224;-2.328;2023-02-03T19:27:23;11.70;93.00
65050;DHT22;52090;51.224;-2.328;2023-02-03T19:31:12;11.70;93.00
65050;DHT22;52090;51.224;-2.328;2023-02-03T19:34:55;11.70;93.20
65050;DHT22;52090;51.224;-2.328;2023-02-03T19:38:37;11.60;93.00
65050;DHT22;52090;51.224;-2.328;2023-02-03T19:42:19;11.60;93.00
65050;DHT22;52090;51.224;-2.328;2023-02-03T19:46:01;11.60;93.10
65050;DHT22;52090;51.224;-2.328;2023-02-03T19:49:43;11.60;93.20
65050;DHT22;52090;51.224;-2.328;2023-02-03T19:53:24;11.60;93.20
65050;DHT22;52090;51.224;-2.328;2023-02-03T19:57:06;11.60;93.20
65050;DHT22;52090;51.224;-2.328;2023-02-03T20:00:48;11.60;93.30
65050;DHT22;52090;51.224;-2.328;2023-02-03T20:04:30;11.60;93.30
65050;DHT22;52090;51.224;-2.328;2023-02-03T20:08:14;11.60;93.30
65050;DHT22;52090;51.224;-2.328;2023-02-03T20:11:57;11.60;93.30
65050;DHT22;52090;51.224;-2.328;2023-02-03T20:15:43;11.60;93.30
65050;DHT22;52090;51.224;-2.328;2023-02-03T20:19:27;11.60;93.30
65050;DHT22;52090;51.224;-2.328;2023-02-03T20:23:09;11.60;93.30
65050;DHT22;52090;51.224;-2.328;2023-02-03T20:26:51;11.60;93.30
65050;DHT22;52090;51.224;-2.328;2023-02-03T20:30:33;11.50;93.20
65050;DHT22;52090;51.224;-2.328;2023-02-03T20:34:15;11.50;93.20
65050;DHT22;52090;51.224;-2.328;2023-02-03T20:37:57;11.50;93.30
65050;DHT22;52090;51.224;-2.328;2023-02-03T20:41:38;11.50;93.50
65050;DHT22;52090;51.224;-2.328;2023-02-03T20:45:22;11.50;93.20
65050;DHT22;52090;51.224;-2.328;2023-02-03T20:49:12;11.50;93.20
65050;DHT22;52090;51.224;-2.328;2023-02-03T20:52:54;11.50;93.10
65050;DHT22;52090;51.224;-2.328;2023-02-03T20:56:35;11.40;93.10
65050;DHT22;52090;51.224;-2.328;2023-02-03T21:00:23;11.40;93.10
65050;DHT22;52090;51.224;-2.328;2023-02-03T21:04:16;11.30;93.20
65050;DHT22;52090;51.224;-2.328;2023-02-03T21:08:18;11.30;93.60
65050;DHT22;52090;51.224;-2.328;2023-02-03T21:12:00;11.30;93.20
65050;DHT22;52090;51.224;-2.328;2023-02-03T21:15:42;11.30;93.40
65050;DHT22;52090;51.224;-2.328;2023-02-03T21:19:30;11.20;93.10
65050;DHT22;52090;51.224;-2.328;2023-02-03T21:23:13;11.20;93.20
65050;DHT22;52090;51.224;-2.328;2023-02-03T21:26:55;11.20;93.10
65050;DHT22;52090;51.224;-2.328;2023-02-03T21:30:37;11.20;93.00
65050;DHT22;52090;51.224;-2.328;2023-02-03T21:34:32;11.10;93.00
65050;DHT22;52090;51.224;-2.328;2023-02-03T21:38:30;11.10;93.00
65050;DHT22;52090;51.224;-2.328;2023-02-03T21:42:27;11.00;93.20
65050;DHT22;52090;51.224;-2.328;2023-02-03T21:54:21;11.00;93.40
65050;DHT22;52090;51.224;-2.328;2023-02-03T21:58:36;11.00;93.40
65050;DHT22;52090;51.224;-2.328;2023-02-03T22:06:43;11.00;93.60
65050;DHT22;52090;51.224;-2.328;2023-02-03T22:10:24;11.00;93.40
65050;DHT22;52090;51.224;-2.328;2023-02-03T22:14:05;11.00;93.50
65050;DHT22;52090;51.224;-2.328;2023-02-03T22:17:47;11.00;93.60
65050;DHT22;52090;51.224;-2.328;2023-02-03T22:21:34;11.00;93.70
65050;DHT22;52090;51.224;-2.328;2023-02-03T22:25:21;11.00;93.70
65050;DHT22;52090;51.224;-2.328;2023-02-03T22:29:12;11.10;93.70
65050;DHT22;52090;51.224;-2.328;2023-02-03T22:33:08;11.00;93.90
65050;DHT22;52090;51.224;-2.328;2023-02-03T22:36:56;11.00;93.70
65050;DHT22;52090;51.224;-2.328;2023-02-03T22:40:43;11.00;93.80
65050;DHT22;52090;51.224;-2.328;2023-02-03T22:44:27;11.00;93.80
65050;DHT22;52090;51.224;-2.328;2023-02-03T22:48:08;11.00;94.00
65050;DHT22;52090;51.224;-2.328;2023-02-03T22:51:50;11.00;94.00
65050;DHT22;52090;51.224;-2.328;2023-02-03T22:55:34;11.00;94.00
65050;DHT22;52090;51.224;-2.328;2023-02-03T22:59:19;11.00;94.40
65050;DHT22;52090;51.224;-2.328;2023-02-03T23:03:02;11.00;94.50
65050;DHT22;52090;51.224;-2.328;2023-02-03T23:06:46;11.00;94.00
65050;DHT22;52090;51.224;-2.328;2023-02-03T23:10:34;10.90;93.80
65050;DHT22;52090;51.224;-2.328;2023-02-03T23:14:21;10.90;93.90
65050;DHT22;52090;51.224;-2.328;2023-02-03T23:18:03;10.90;94.00
65050;DHT22;52090;51.224;-2.328;2023-02-03T23:21:44;10.90;94.00
65050;DHT22;52090;51.224;-2.328;2023-02-03T23:25:26;10.90;94.00
65050;DHT22;52090;51.224;-2.328;2023-02-03T23:29:08;10.90;94.10
65050;DHT22;52090;51.224;-2.328;2023-02-03T23:32:50;10.90;94.10
65050;DHT22;52090;51.224;-2.328;2023-02-03T23:36:32;10.90;94.10
65050;DHT22;52090;51.224;-2.328;2023-02-03T23:40:14;10.90;94.10
65050;DHT22;52090;51.224;-2.328;2023-02-03T23:43:56;10.90;94.10
65050;DHT22;52090;51.224;-2.328;2023-02-03T23:47:39;10.90;94.10
65050;DHT22;52090;51.224;-2.328;2023-02-03T23:51:22;10.90;94.10
65050;DHT22;52090;51.224;-2.328;2023-02-03T23:55:09;10.90;94.10
65050;DHT22;52090;51.224;-2.328;2023-02-03T23:58:53;10.90;94.20
